Terminal Aerodrome Forecast
Issued by NWS

Current Version | Previous Version | Text Only | Print | Product List | Glossary On
Versions: 1 2 3 4 5 6 7 8 9 10 11 12 13 14 15 16
000
FTUS42 KMHX 281100
TAFISO
TAF
KISO 281126Z 2812/2912 22006KT P6SM OVC120
     FM281800 22005KT P6SM OVC040
     FM290200 24003KT 5SM BR VCSH OVC015
     FM290700 33003KT 2SM -RA BR OVC007
      AMD LTD TO CLD VIS AND WIND=

USA.gov is the U.S. government's official web portal to all federal, state and local government web resources and services.